Time;durP1;ratioP1;P1;durP2;ratioP2;P2;SDS_P1;SDS_P2;PMS_P1;PMS_P2;Temp;Humidity;BMP_temperature;BMP_pressure;BME280_temperature;BME280_humidity;BME280_pressure;Samples;Min_cycle;Max_cycle;Signal;HPM_P1;HPM_P2
2021/06/27 00:01:52;;;;;;;4.40;2.80;;;;;;;26.17;56.59;100566.52;124755;1119;64196;-84
2021/06/27 00:04:41;;;;;;;4.60;2.70;;;;;;;26.20;56.57;100575.20;124897;1116;64192;-85
2021/06/27 00:07:50;;;;;;;;;;;;;;;26.23;56.61;100580.31;125051;1115;64240;-84
2021/06/27 00:10:59;;;;;;;5.90;2.90;;;;;;;26.27;56.48;100578.17;125025;1114;64201;-85
2021/06/27 00:13:51;;;;;;;4.95;3.25;;;;;;;26.28;56.61;100574.44;124968;1114;64232;-84
2021/06/27 00:17:19;;;;;;;;;;;;;;;;;;;;;
2021/06/27 00:20:32;;;;;;;3.50;2.80;;;;;;;26.27;56.36;100588.98;125270;1112;64163;-85
2021/06/27 00:23:55;;;;;;;3.85;2.60;;;;;;;26.27;56.41;100588.98;125363;1112;64802;-84
2021/06/27 00:27:20;;;;;;;;;;;;;;;;;;;;;
2021/06/27 00:30:40;;;;;;;4.95;3.20;;;;;;;26.24;56.22;100603.67;125067;1112;64362;-84
2021/06/27 00:34:10;;;;;;;;;;;;;;;;;;;;;
2021/06/27 00:37:35;;;;;;;;;;;;;;;;;;;;;
2021/06/27 00:41:07;;;;;;;3.80;2.70;;;;;;;26.17;56.27;100628.75;125333;1111;63994;-84
2021/06/27 00:44:05;;;;;;;;;;;;;;;;;;;;;
2021/06/27 00:47:24;;;;;;;5.43;2.47;;;;;;;26.15;56.24;100660.49;125344;1112;64166;-84
2021/06/27 00:50:33;;;;;;;;;;;;;;;;;;;;;
2021/06/27 00:54:05;;;;;;;;;;;;;;;;;;;;;
2021/06/27 01:00:47;;;;;;;4.35;2.70;;;;;;;26.25;56.45;100686.52;125058;1111;64329;-84
2021/06/27 01:03:46;;;;;;;3.97;2.60;;;;;;;26.25;56.33;100689.22;125159;1111;64176;-84
2021/06/27 01:06:44;;;;;;;4.75;2.73;;;;;;;26.26;56.34;100693.64;125356;1109;64324;-84
2021/06/27 01:10:36;;;;;;;4.80;2.80;;;;;;;26.26;56.16;100681.98;125335;1109;64436;-84
2021/06/27 01:13:38;;;;;;;5.00;2.50;;;;;;;26.25;56.16;100689.22;125294;1112;64183;-83
2021/06/27 01:16:48;;;;;;;3.90;2.55;;;;;;;26.23;56.32;100677.72;125365;1109;64474;-84
2021/06/27 01:19:46;;;;;;;;;;;;;;;;;;;;;
2021/06/27 01:23:20;;;;;;;4.70;2.60;;;;;;;26.20;56.14;100669.03;125330;1109;64198;-84
2021/06/27 01:26:10;;;;;;;4.20;2.70;;;;;;;26.18;56.20;100660.22;125048;1111;64642;-85
2021/06/27 01:29:02;;;;;;;;;;;;;;;;;;;;;
2021/06/27 01:32:11;;;;;;;;;;;;;;;;;;;;;
2021/06/27 01:35:08;;;;;;;3.80;2.50;;;;;;;26.13;56.38;100678.74;125610;1108;64173;-85
2021/06/27 01:38:36;;;;;;;;;;;;;;;;;;;;;
2021/06/27 01:42:04;;;;;;;;;;;;;;;;;;;;;
2021/06/27 01:45:19;;;;;;;4.43;2.50;;;;;;;26.21;56.46;100681.56;125830;1105;64157;-84
2021/06/27 01:48:05;;;;;;;4.50;2.77;;;;;;;26.23;56.51;100658.77;125875;1105;64355;-84
2021/06/27 01:51:10;;;;;;;;;;;;;;;;;;;;;
2021/06/27 01:54:08;;;;;;;;;;;;;;;;;;;;;
2021/06/27 01:57:52;;;;;;;;;;;;;;;;;;;;;
2021/06/27 02:01:06;;;;;;;3.93;2.33;;;;;;;26.22;56.12;100630.00;125892;1103;64202;-83
2021/06/27 02:08:04;;;;;;;;;;;;;;;;;;;;;
2021/06/27 02:11:15;;;;;;;4.33;2.40;;;;;;;26.18;56.25;100623.19;125842;1104;64163;-83
2021/06/27 02:14:34;;;;;;;;;;;;;;;;;;;;;
2021/06/27 02:17:55;;;;;;;4.25;2.70;;;;;;;26.15;56.13;100655.08;125710;1109;64230;-84
2021/06/27 02:20:50;;;;;;;4.57;2.50;;;;;;;26.12;55.99;100656.23;125747;1108;64217;-84
2021/06/27 02:23:58;;;;;;;3.80;2.50;;;;;;;26.10;56.46;100642.85;125710;1106;64131;-84
2021/06/27 02:27:25;;;;;;;4.05;2.50;;;;;;;26.13;56.44;100641.70;125330;1109;65407;-84
2021/06/27 02:30:42;;;;;;;;;;;;;;;;;;;;;
2021/06/27 02:33:37;;;;;;;4.00;2.50;;;;;;;26.20;56.53;100647.38;125322;1109;64241;-83
2021/06/27 02:37:15;;;;;;;;;;;;;;;;;;;;;
2021/06/27 02:40:45;;;;;;;;;;;;;;;;;;;;;
2021/06/27 02:43:53;;;;;;;;;;;;;;;;;;;;;
2021/06/27 02:47:18;;;;;;;5.63;2.97;;;;;;;26.24;56.43;100600.09;125402;1108;64157;-84
2021/06/27 02:50:11;;;;;;;3.10;2.30;;;;;;;26.23;56.05;100595.70;125711;1105;64113;-84
2021/06/27 02:52:57;;;;;;;3.47;2.40;;;;;;;26.22;56.19;100607.52;125889;1105;64176;-85
2021/06/27 02:55:46;;;;;;;4.33;2.30;;;;;;;26.20;55.83;100602.26;125867;1106;64150;-84
2021/06/27 02:59:26;;;;;;;;;;;;;;;;;;;;;
2021/06/27 03:02:31;;;;;;;4.30;2.60;;;;;;;26.15;56.14;100609.09;125681;1109;64152;-84
2021/06/27 03:05:43;;;;;;;4.00;2.30;;;;;;;26.14;56.15;100620.94;125726;1108;64187;-84
2021/06/27 03:09:24;;;;;;;3.83;2.33;;;;;;;26.11;56.06;100616.67;125757;1105;64223;-84
2021/06/27 03:12:24;;;;;;;;;;;;;;;;;;;;;
2021/06/27 03:15:36;;;;;;;4.15;2.60;;;;;;;26.13;56.33;100613.81;125718;1105;64355;-84
2021/06/27 03:18:35;;;;;;;4.47;2.60;;;;;;;26.17;56.22;100628.75;125858;1105;65369;-83
2021/06/27 03:21:33;;;;;;;4.00;2.60;;;;;;;26.19;56.47;100635.72;125865;1106;64192;-84
2021/06/27 03:25:11;;;;;;;;;;;;;;;;;;;;;
2021/06/27 03:28:34;;;;;;;;;;;;;;;;;;;;;
2021/06/27 03:31:33;;;;;;;4.07;2.53;;;;;;;26.25;56.32;100628.86;126104;1102;64237;-84
2021/06/27 03:34:48;;;;;;;;;;;;;;;;;;;;;
2021/06/27 03:41:18;;;;;;;;;;;;;;;;;;;;;
2021/06/27 03:45:02;;;;;;;3.20;2.30;;;;;;;26.22;56.16;100648.10;127304;1097;64152;-84
2021/06/27 03:47:49;;;;;;;4.17;2.60;;;;;;;26.19;56.04;100641.13;127257;1096;64176;-83
2021/06/27 03:50:59;;;;;;;5.33;2.60;;;;;;;26.16;56.16;100638.73;127286;1095;64365;-84
2021/06/27 03:54:35;;;;;;;;;;;;;;;;;;;;;
2021/06/27 03:57:15;;;;;;;3.93;2.43;;;;;;;26.14;56.20;100643.42;127141;1098;62855;-83
2021/06/27 04:00:53;;;;;;;;;;;;;;;;;;;;;
2021/06/27 04:04:01;;;;;;;4.60;2.57;;;;;;;26.18;56.66;100644.83;126351;1100;64240;-84
2021/06/27 04:07:17;;;;;;;;;;;;;;;;;;;;;
2021/06/27 04:10:26;;;;;;;4.80;2.60;;;;;;;26.25;56.42;100648.64;126313;1100;64240;-84
2021/06/27 04:13:54;;;;;;;3.40;2.40;;;;;;;26.26;56.47;100650.35;125848;1102;64311;-84
2021/06/27 04:17:28;;;;;;;;;;;;;;;;;;;;;
2021/06/27 04:20:37;;;;;;;;;;;;;;;;;;;;;
2021/06/27 04:23:56;;;;;;;;;;;;;;;;;;;;;
2021/06/27 04:27:17;;;;;;;4.25;2.60;;;;;;;26.26;56.42;100658.47;125327;1109;64146;-84
2021/06/27 04:30:37;;;;;;;4.20;2.60;;;;;;;26.25;56.19;100656.75;125693;1109;64259;-83
2021/06/27 04:33:23;;;;;;;4.25;2.70;;;;;;;26.25;56.33;100664.03;125340;1109;64319;-84
2021/06/27 04:36:29;;;;;;;;;;;;;;;;;;;;;
2021/06/27 04:39:18;;;;;;;;;;;;;;;;;;;;;
2021/06/27 04:43:30;;;;;;;3.07;2.13;;;;;;;26.23;56.31;100660.64;125414;1109;64067;-84
2021/06/27 04:46:40;;;;;;;;;;;;;;;;;;;;;
2021/06/27 04:49:44;;;;;;;3.95;2.80;;;;;;;26.28;56.64;100662.89;125064;1113;64183;-84
2021/06/27 04:53:05;;;;;;;;;;;;;;;;;;;;;
2021/06/27 04:56:16;;;;;;;;;;;;;;;;;;;;;
2021/06/27 04:59:55;;;;;;;4.60;2.50;;;;;;;26.37;56.78;100656.59;125319;1109;64047;-85
2021/06/27 05:03:04;;;;;;;;;;;;;;;;;;;;;
2021/06/27 05:06:03;;;;;;;;;;;;;;;;;;;;;
2021/06/27 05:08:53;;;;;;;4.50;2.60;;;;;;;26.38;56.57;100659.14;125365;1109;64176;-84
2021/06/27 05:11:52;;;;;;;;;;;;;;;;;;;;;
2021/06/27 05:15:03;;;;;;;5.27;2.80;;;;;;;26.38;56.70;100669.13;125707;1109;64201;-84
2021/06/27 05:18:26;;;;;;;6.75;2.90;;;;;;;26.38;56.59;100688.91;125811;1105;64405;-84
2021/06/27 05:21:44;;;;;;;;;;;;;;;;;;;;;
2021/06/27 05:25:18;;;;;;;5.20;2.80;;;;;;;26.38;56.90;100707.02;125800;1105;64288;-84
2021/06/27 05:29:02;;;;;;;;;;;;;;;;;;;;;
2021/06/27 05:32:21;;;;;;;5.95;2.85;;;;;;;26.45;56.97;100705.42;125719;1109;64343;-84
2021/06/27 05:35:41;;;;;;;;;;;;;;;;;;;;;
2021/06/27 05:38:45;;;;;;;5.05;3.00;;;;;;;26.54;57.07;100698.28;125030;1112;64257;-84
2021/06/27 05:42:38;;;;;;;4.00;2.60;;;;;;;26.56;56.75;100702.55;125367;1112;64299;-84
2021/06/27 05:45:22;;;;;;;;;;;;;;;;;;;;;
2021/06/27 05:48:02;;;;;;;5.95;2.75;;;;;;;26.57;56.66;100698.81;125402;1111;64317;-84
2021/06/27 05:51:22;;;;;;;;;;;;;;;;;;;;;
2021/06/27 05:55:00;;;;;;;;;;;;;;;;;;;;;
2021/06/27 05:58:11;;;;;;;;;;;;;;;;;;;;;
2021/06/27 06:01:20;;;;;;;4.90;2.90;;;;;;;26.53;56.69;100693.86;125045;1114;65393;-84
2021/06/27 06:04:31;;;;;;;;;;;;;;;;;;;;;
2021/06/27 06:07:51;;;;;;;;;;;;;;;;;;;;;
2021/06/27 06:11:17;;;;;;;5.27;2.90;;;;;;;26.54;56.93;100698.28;124903;1116;64153;-84
2021/06/27 06:14:06;;;;;;;4.95;2.80;;;;;;;26.57;56.98;100690.69;125028;1116;64371;-84
2021/06/27 06:17:04;;;;;;;;;;;;;;;;;;;;;
2021/06/27 06:20:26;;;;;;;;;;;;;;;;;;;;;
2021/06/27 06:23:23;;;;;;;5.20;2.90;;;;;;;26.66;56.88;100705.20;125080;1111;64237;-85
2021/06/27 06:26:53;;;;;;;4.10;2.60;;;;;;;26.66;56.85;100713.33;125094;1111;64186;-84
2021/06/27 06:30:11;;;;;;;;;;;;;;;;;;;;;
2021/06/27 06:33:21;;;;;;;;;;;;;;;26.65;56.91;100722.44;125018;1114;64365;-83
2021/06/27 06:36:07;;;;;;;5.60;2.80;;;;;;;26.63;56.88;100718.17;124942;1114;64413;-84
2021/06/27 06:39:11;;;;;;;4.60;2.60;;;;;;;26.62;56.60;100724.59;124981;1114;63974;-85
2021/06/27 06:41:57;;;;;;;4.70;2.80;;;;;;;26.59;56.74;100723.89;125052;1111;64023;-84
2021/06/27 06:45:03;;;;;;;5.90;2.80;;;;;;;26.58;56.69;100724.05;125251;1111;64865;-85
2021/06/27 06:48:10;;;;;;;;;;;;;;;;;;;;;
2021/06/27 06:51:23;;;;;;;;;;;;;;;;;;;;;
2021/06/27 06:54:39;;;;;;;4.23;2.50;;;;;;;26.63;57.22;100732.58;125363;1109;63993;-85
2021/06/27 06:57:18;;;;;;;5.40;2.70;;;;;;;26.66;56.88;100726.02;125320;1111;64206;-84
2021/06/27 07:00:11;;;;;;;5.40;2.90;;;;;;;26.69;56.90;100723.01;125217;1109;64348;-84
2021/06/27 07:03:06;;;;;;;5.03;2.73;;;;;;;26.69;56.76;100723.01;125400;1112;61885;-84
2021/06/27 07:06:02;;;;;;;6.20;2.80;;;;;;;26.71;56.75;100723.73;125066;1109;64336;-85
2021/06/27 07:08:50;;;;;;;;;;;;;;;;;;;;;
2021/06/27 07:11:26;;;;;;;4.55;2.90;;;;;;;26.69;56.72;100715.73;125657;1108;64176;-84
2021/06/27 07:14:32;;;;;;;5.17;2.90;;;;;;;26.68;56.73;100719.42;125747;1106;65136;-84
2021/06/27 07:17:02;;;;;;;5.73;3.17;;;;;;;26.65;56.73;100719.73;125782;1105;64629;-84
2021/06/27 07:20:19;;;;;;;4.70;2.83;;;;;;;26.65;56.46;100727.02;125725;1105;64137;-84
2021/06/27 07:23:38;;;;;;;;;;;;;;;;;;;;;
2021/06/27 07:26:49;;;;;;;5.90;2.70;;;;;;;26.60;56.52;100719.33;125880;1101;64226;-84
2021/06/27 07:29:42;;;;;;;4.97;2.80;;;;;;;26.57;56.62;100715.05;125884;1101;64466;-85
2021/06/27 07:32:49;;;;;;;3.97;2.77;;;;;;;26.57;56.72;100725.88;125853;1103;64327;-84
2021/06/27 07:36:37;;;;;;;;;;;;;;;;;;;;;
2021/06/27 07:39:43;;;;;;;4.17;2.90;;;;;;;26.63;56.74;100723.59;127156;1098;64135;-84
2021/06/27 07:42:56;;;;;;;;;;;;;;;;;;;;;
2021/06/27 07:45:56;;;;;;;5.77;2.77;;;;;;;26.69;56.84;100731.13;127159;1096;64121;-83
2021/06/27 07:48:54;;;;;;;;;;;;;;;;;;;;;
2021/06/27 07:52:38;;;;;;;4.13;2.70;;;;;;;26.71;56.62;100735.43;127163;1097;64426;-84
2021/06/27 07:55:31;;;;;;;4.43;2.60;;;;;;;26.70;56.58;100736.39;127153;1100;64118;-84
2021/06/27 07:58:33;;;;;;;5.23;3.20;;;;;;;26.69;56.40;100740.09;126305;1101;64192;-84
2021/06/27 08:02:02;;;;;;;;;;;;;;;;;;;;;
2021/06/27 08:04:59;;;;;;;;;;;;;;;;;;;;;
2021/06/27 08:08:00;;;;;;;5.40;2.95;;;;;;;26.63;56.40;100737.13;125878;1105;64173;-85
2021/06/27 08:11:15;;;;;;;4.07;2.90;;;;;;;26.61;56.63;100750.81;125833;1106;64360;-85
2021/06/27 08:14:24;;;;;;;4.35;3.15;;;;;;;26.59;56.57;100752.83;125750;1106;64375;-85
2021/06/27 08:17:22;;;;;;;4.80;2.77;;;;;;;26.58;56.37;100749.25;125633;1109;64176;-83
2021/06/27 08:20:42;;;;;;;4.50;3.03;;;;;;;26.58;56.72;100749.25;125733;1105;64218;-85
2021/06/27 08:23:28;;;;;;;4.40;2.80;;;;;;;26.62;56.80;100751.66;125848;1104;64176;-85
2021/06/27 08:26:49;;;;;;;5.30;3.00;;;;;;;26.64;57.02;100745.09;125811;1103;64164;-83
2021/06/27 08:29:49;;;;;;;;;;;;;;;;;;;;;
2021/06/27 08:32:29;;;;;;;;;;;;;;;26.68;56.59;100740.25;126387;1103;64225;-84
2021/06/27 08:35:59;;;;;;;5.00;3.20;;;;;;;26.67;56.54;100739.41;126325;1100;65005;-84
2021/06/27 08:39:33;;;;;;;5.20;3.20;;;;;;;26.67;57.10;100746.66;126829;1100;65107;-84
2021/06/27 08:42:49;;;;;;;5.43;3.40;;;;;;;26.66;56.47;100750.39;126833;1100;64139;-84
2021/06/27 08:45:52;;;;;;;5.87;3.00;;;;;;;26.64;56.49;100745.09;127116;1098;64160;-84
2021/06/27 08:49:19;;;;;;;;;;;;;;;;;;;;;
2021/06/27 08:52:33;;;;;;;5.17;3.03;;;;;;;26.60;56.34;100744.56;127017;1098;64157;-84
2021/06/27 08:55:28;;;;;;;;;;;;;;;;;;;;;
2021/06/27 08:58:35;;;;;;;4.70;3.00;;;;;;;26.56;56.62;100740.45;127134;1100;64375;-85
2021/06/27 09:01:47;;;;;;;4.27;3.00;;;;;;;26.57;56.67;100744.84;127138;1098;64102;-84
2021/06/27 09:05:05;;;;;;;3.83;2.80;;;;;;;26.60;56.58;100746.39;126295;1102;64266;-84
2021/06/27 09:08:29;;;;;;;4.50;3.10;;;;;;;26.63;56.83;100746.13;126336;1102;64169;-84
2021/06/27 09:11:35;;;;;;;4.03;2.80;;;;;;;26.68;56.64;100742.95;126268;1101;64239;-84
2021/06/27 09:14:39;;;;;;;4.03;3.10;;;;;;;26.70;56.77;100735.55;125768;1102;64199;-84
2021/06/27 09:17:51;;;;;;;4.13;2.90;;;;;;;26.72;56.56;100737.14;126195;1102;64265;-81
2021/06/27 09:21:00;;;;;;;4.87;2.90;;;;;;;26.72;56.49;100728.15;126162;1101;64396;-84
2021/06/27 09:24:12;;;;;;;4.23;3.00;;;;;;;26.71;56.52;100727.31;126103;1103;64275;-82
2021/06/27 09:27:02;;;;;;;6.53;3.40;;;;;;;26.71;56.35;100723.73;126257;1100;64168;-84
2021/06/27 09:30:13;;;;;;;4.33;3.13;;;;;;;26.70;56.41;100719.31;126261;1101;64613;-85
2021/06/27 09:33:23;;;;;;;4.40;3.13;;;;;;;26.68;56.43;100724.00;126172;1100;64250;-85
2021/06/27 09:36:35;;;;;;;4.43;2.90;;;;;;;26.67;56.33;100722.29;126335;1103;63933;-84
2021/06/27 09:39:34;;;;;;;4.93;3.03;;;;;;;26.64;56.37;100718.02;125882;1101;64475;-84
2021/06/27 09:42:43;;;;;;;4.47;2.80;;;;;;;26.62;56.24;100714.63;125991;1103;64191;-85
2021/06/27 09:46:00;;;;;;;;;;;;;;;;;;;;;
2021/06/27 09:49:09;;;;;;;;;;;;;;;;;;;;;
2021/06/27 09:52:21;;;;;;;3.60;2.50;;;;;;;26.59;56.40;100715.77;126224;1103;64446;-85
2021/06/27 09:55:13;;;;;;;5.10;3.00;;;;;;;26.63;56.69;100724.47;126153;1103;64909;-84
2021/06/27 09:58:31;;;;;;;4.40;3.23;;;;;;;26.66;56.62;100718.74;126370;1103;64130;-85
2021/06/27 10:01:58;;;;;;;4.20;2.93;;;;;;;26.68;56.64;100711.30;125879;1105;63971;-85
2021/06/27 10:04:57;;;;;;;;;;;;;;;;;;;;;
2021/06/27 10:08:09;;;;;;;;;;;;;;;;;;;;;
2021/06/27 10:11:57;;;;;;;4.45;2.65;;;;;;;26.68;56.30;100718.59;126361;1101;64179;-84
2021/06/27 10:15:00;;;;;;;;;;;;;;;;;;;;;
2021/06/27 10:18:18;;;;;;;;;;;;;;;;;;;;;
2021/06/27 10:21:12;;;;;;;4.70;2.90;;;;;;;26.63;56.76;100712.76;125838;1101;64198;-84
2021/06/27 10:24:12;;;;;;;4.30;2.60;;;;;;;26.62;56.44;100719.17;125891;1103;64188;-85
2021/06/27 10:27:34;;;;;;;;;;;;;;;;;;;;;
2021/06/27 10:30:47;;;;;;;3.93;2.73;;;;;;;26.57;56.44;100717.77;125841;1103;64166;-83
2021/06/27 10:33:39;;;;;;;4.07;2.60;;;;;;;26.55;56.37;100717.08;125833;1103;64371;-84
2021/06/27 10:36:53;;;;;;;3.90;2.77;;;;;;;26.54;56.41;100714.52;125891;1103;64317;-84
2021/06/27 10:40:35;;;;;;;4.10;2.60;;;;;;;26.56;56.49;100710.67;125918;1103;64165;-84
2021/06/27 10:43:42;;;;;;;4.10;2.70;;;;;;;26.59;56.52;100717.64;125812;1105;64156;-83
2021/06/27 10:46:59;;;;;;;4.30;2.93;;;;;;;26.63;56.69;100720.88;125779;1106;64266;-85
2021/06/27 10:50:04;;;;;;;;;;;;;;;;;;;;;
2021/06/27 10:53:11;;;;;;;5.17;2.90;;;;;;;26.66;56.69;100715.19;125393;1111;64425;-84
2021/06/27 10:56:27;;;;;;;5.10;3.00;;;;;;;26.66;56.52;100716.03;125324;1111;64268;-84
2021/06/27 10:59:52;;;;;;;;;;;;;;;;;;;;;
2021/06/27 11:03:30;;;;;;;4.65;2.95;;;;;;;26.62;56.20;100703.80;125328;1112;64393;-85
2021/06/27 11:06:37;;;;;;;3.95;2.75;;;;;;;26.60;56.47;100700.38;125321;1111;64235;-83
2021/06/27 11:09:27;;;;;;;4.20;2.95;;;;;;;26.58;56.43;100699.69;124917;1112;64259;-84
2021/06/27 11:12:23;;;;;;;;;;;;;;;;;;;;;
2021/06/27 11:15:57;;;;;;;;;;;;;;;;;;;;;
2021/06/27 11:19:14;;;;;;;;;;;;;;;;;;;;;
2021/06/27 11:22:29;;;;;;;4.55;2.70;;;;;;;26.53;56.60;100691.98;125555;1109;64176;-82
2021/06/27 11:25:05;;;;;;;4.97;2.63;;;;;;;26.54;56.70;100687.45;125543;1109;64349;-84
2021/06/27 11:27:55;;;;;;;5.00;2.83;;;;;;;26.57;56.63;100690.69;125825;1103;64409;-84
2021/06/27 11:30:41;;;;;;;5.10;3.20;;;;;;;26.62;56.61;100676.72;125779;1103;64203;-83
2021/06/27 11:33:54;;;;;;;4.73;3.13;;;;;;;26.65;56.44;100676.41;125975;1100;64304;-85
2021/06/27 11:36:59;;;;;;;4.85;3.05;;;;;;;26.67;56.47;100678.97;126741;1096;64154;-84
2021/06/27 11:40:17;;;;;;;;;;;;;;;;;;;;;
2021/06/27 11:43:24;;;;;;;5.77;3.20;;;;;;;26.67;56.11;100693.38;127185;1097;64153;-84
2021/06/27 11:46:23;;;;;;;3.93;2.83;;;;;;;26.66;56.26;100696.23;127090;1100;64264;-84
2021/06/27 11:49:24;;;;;;;4.47;3.10;;;;;;;26.64;56.08;100709.90;127076;1098;64201;-84
2021/06/27 11:52:17;;;;;;;4.23;2.97;;;;;;;26.62;56.13;100701.09;127195;1096;64160;-85
2021/06/27 11:55:08;;;;;;;5.00;3.10;;;;;;;26.59;56.24;100699.53;127209;1095;64142;-84
2021/06/27 11:58:11;;;;;;;4.07;3.00;;;;;;;26.58;56.15;100699.69;127118;1096;64160;-85
2021/06/27 12:00:49;;;;;;;;;;;;;;;26.56;56.37;100704.38;126896;1096;64115;-82
2021/06/27 12:03:43;;;;;;;5.33;3.30;;;;;;;26.53;56.28;100702.81;126911;1096;64233;-82
2021/06/27 12:06:36;;;;;;;5.20;3.17;;;;;;;26.53;55.96;100710.09;126952;1095;64154;-83
2021/06/27 12:09:38;;;;;;;5.07;2.70;;;;;;;26.54;56.44;100709.11;127131;1093;64304;-83
2021/06/27 12:13:06;;;;;;;4.47;3.00;;;;;;;26.55;56.48;100708.08;127183;1093;64304;-84
2021/06/27 12:15:56;;;;;;;4.90;3.17;;;;;;;26.58;56.51;100711.35;127119;1098;64809;-84
2021/06/27 12:19:11;;;;;;;;;;;;;;;;;;;;;
2021/06/27 12:22:09;;;;;;;4.40;3.10;;;;;;;26.66;56.38;100707.91;127190;1096;64277;-83
2021/06/27 12:25:37;;;;;;;5.17;3.00;;;;;;;26.68;56.36;100707.76;127171;1095;64168;-84
2021/06/27 12:28:51;;;;;;;;;;;;;;;;;;;;;
2021/06/27 12:32:00;;;;;;;5.27;3.37;;;;;;;26.68;56.37;100714.02;126340;1103;64172;-84
2021/06/27 12:35:27;;;;;;;;;;;;;;;;;;;;;
2021/06/27 12:38:29;;;;;;;4.70;3.17;;;;;;;26.66;56.18;100716.03;126303;1101;64086;-84
2021/06/27 12:42:20;;;;;;;5.10;3.03;;;;;;;26.64;55.82;100709.06;126314;1103;64253;-84
2021/06/27 12:45:38;;;;;;;5.10;2.90;;;;;;;26.62;56.13;100705.63;125953;1103;64166;-84
2021/06/27 12:48:31;;;;;;;3.97;3.13;;;;;;;26.62;56.36;100717.34;126277;1101;64463;-86
2021/06/27 12:52:02;;;;;;;5.70;3.33;;;;;;;26.60;56.20;100700.38;126593;1100;64434;-84
2021/06/27 12:54:44;;;;;;;3.75;2.70;;;;;;;26.60;56.37;100706.66;126219;1100;64422;-83
2021/06/27 12:57:42;;;;;;;4.27;2.90;;;;;;;26.63;56.50;100704.64;126177;1099;64164;-83
2021/06/27 13:00:19;;;;;;;4.43;3.10;;;;;;;26.66;56.49;100698.95;126692;1100;64199;-83
2021/06/27 13:03:00;;;;;;;4.23;3.00;;;;;;;26.70;56.38;100689.52;126294;1099;64244;-83
2021/06/27 13:05:34;;;;;;;5.00;3.17;;;;;;;26.75;56.37;100689.93;126741;1096;64174;-84
2021/06/27 13:08:21;;;;;;;5.37;3.27;;;;;;;26.76;56.67;100692.52;127023;1096;64136;-83
2021/06/27 13:11:25;;;;;;;5.20;3.23;;;;;;;26.79;56.08;100687.78;127230;1097;64303;-85
2021/06/27 13:14:47;;;;;;;;;;;;;;;;;;;;;
2021/06/27 13:18:07;;;;;;;5.80;3.00;;;;;;;26.78;56.26;100684.23;127316;1097;64092;-84
2021/06/27 13:21:06;;;;;;;4.63;3.07;;;;;;;26.76;55.90;100689.81;127326;1094;65312;-85
2021/06/27 13:24:22;;;;;;;;;;;;;;;;;;;;;
2021/06/27 13:27:30;;;;;;;4.65;3.20;;;;;;;26.73;56.20;100698.21;127666;1093;64115;-84
2021/06/27 13:30:49;;;;;;;4.37;3.20;;;;;;;26.72;56.19;100684.83;127903;1090;64257;-84
2021/06/27 13:34:00;;;;;;;4.43;3.50;;;;;;;26.70;56.15;100692.23;127690;1090;64275;-84
2021/06/27 13:37:15;;;;;;;;;;;;;;;;;;;;;
2021/06/27 13:40:12;;;;;;;4.30;3.00;;;;;;;26.67;56.28;100700.63;127268;1096;64450;-85
2021/06/27 13:43:19;;;;;;;5.07;3.27;;;;;;;26.66;55.95;100694.38;127283;1096;64115;-87
2021/06/27 13:46:25;;;;;;;4.80;3.00;;;;;;;26.66;56.14;100678.13;127139;1100;64151;-85
2021/06/27 13:48:53;;;;;;;4.30;2.80;;;;;;;26.69;56.35;100677.81;127145;1100;64163;-84
2021/06/27 13:52:03;;;;;;;4.77;3.03;;;;;;;26.71;56.45;100667.73;126628;1100;64739;-85
2021/06/27 13:54:55;;;;;;;4.40;3.20;;;;;;;26.73;56.37;100671.13;127181;1100;64118;-83
2021/06/27 13:58:06;;;;;;;;;;;;;;;;;;;;;
2021/06/27 14:01:00;;;;;;;6.27;3.40;;;;;;;26.73;56.13;100676.55;127163;1099;64157;-86
2021/06/27 14:04:11;;;;;;;4.80;3.10;;;;;;;26.72;55.98;100672.16;126556;1100;64236;-84
2021/06/27 14:07:09;;;;;;;4.60;3.10;;;;;;;26.71;56.19;100677.70;127160;1098;63003;-84
2021/06/27 14:10:17;;;;;;;5.10;2.93;;;;;;;26.69;55.94;100669.70;127225;1096;64153;-85
2021/06/27 14:13:16;;;;;;;;;;;;;;;;;;;;;
2021/06/27 14:15:55;;;;;;;4.10;3.20;;;;;;;26.65;55.93;100667.45;127701;1093;64143;-82
2021/06/27 14:18:26;;;;;;;5.27;3.13;;;;;;;26.64;56.09;100658.45;127569;1089;64404;-83
2021/06/27 14:20:56;;;;;;;4.50;3.13;;;;;;;26.63;55.88;100662.19;127573;1090;64600;-82
2021/06/27 14:23:34;;;;;;;3.93;3.07;;;;;;;26.62;56.13;100663.19;127638;1087;64138;-83
2021/06/27 14:26:12;;;;;;;5.27;3.13;;;;;;;26.62;56.35;100656.90;127796;1087;64381;-83
2021/06/27 14:28:59;;;;;;;;;;;;;;;;;;;;;
2021/06/27 14:31:47;;;;;;;4.48;3.00;;;;;;;26.62;56.15;100657.77;127897;1087;64102;-84
2021/06/27 14:34:47;;;;;;;3.80;2.77;;;;;;;26.64;56.35;100660.33;127938;1085;64238;-83
2021/06/27 14:37:50;;;;;;;5.20;3.40;;;;;;;26.67;56.47;100669.01;127882;1089;64105;-84
2021/06/27 14:40:40;;;;;;;4.63;3.10;;;;;;;26.70;56.21;100665.16;127919;1090;64248;-84
2021/06/27 14:43:53;;;;;;;5.30;3.05;;;;;;;26.72;56.24;100664.03;127908;1089;64195;-84
2021/06/27 14:46:19;;;;;;;4.60;3.13;;;;;;;26.73;56.09;100664.88;127664;1089;64109;-83
2021/06/27 14:49:15;;;;;;;4.90;3.27;;;;;;;26.73;56.08;100668.42;127770;1090;64115;-84
2021/06/27 14:52:04;;;;;;;4.60;3.10;;;;;;;26.72;56.08;100666.74;127906;1087;64329;-84
2021/06/27 14:54:54;;;;;;;4.30;3.23;;;;;;;26.72;56.07;100668.58;127936;1090;64137;-84
2021/06/27 14:57:43;;;;;;;4.23;3.00;;;;;;;26.71;56.25;100669.58;127698;1090;64106;-84
2021/06/27 15:00:36;;;;;;;4.67;3.30;;;;;;;26.70;56.11;100675.98;127697;1093;64217;-85
2021/06/27 15:03:12;;;;;;;4.67;3.27;;;;;;;26.70;56.06;100678.69;127293;1092;64224;-84
2021/06/27 15:05:49;;;;;;;3.90;3.00;;;;;;;26.69;56.05;100682.39;127321;1093;64131;-84
2021/06/27 15:08:49;;;;;;;5.20;3.23;;;;;;;26.68;56.17;100680.68;127281;1093;64176;-85
2021/06/27 15:11:18;;;;;;;4.40;3.00;;;;;;;26.69;56.12;100682.39;127282;1093;64112;-84
2021/06/27 15:14:18;;;;;;;4.40;3.03;;;;;;;26.70;56.42;100676.83;127385;1092;64260;-84
2021/06/27 15:17:02;;;;;;;4.33;3.37;;;;;;;26.72;56.38;100677.58;127692;1093;64156;-84
2021/06/27 15:20:27;;;;;;;4.30;3.20;;;;;;;26.76;56.28;100676.27;127687;1093;64246;-84
2021/06/27 15:23:13;;;;;;;3.67;2.83;;;;;;;26.79;56.12;100672.41;127671;1092;64112;-85
2021/06/27 15:26:20;;;;;;;;;;;;;;;;;;;;;
2021/06/27 15:29:10;;;;;;;4.50;3.30;;;;;;;26.83;56.18;100676.52;127312;1093;64632;-83
2021/06/27 15:32:21;;;;;;;;;;;;;;;;;;;;;
2021/06/27 15:35:35;;;;;;;;;;;;;;;;;;;;;
2021/06/27 15:38:52;;;;;;;;;;;;;;;;;;;;;
2021/06/27 15:41:40;;;;;;;4.37;2.93;;;;;;;26.80;56.21;100655.13;127846;1090;64159;-84
2021/06/27 15:44:25;;;;;;;4.33;3.10;;;;;;;26.80;56.04;100652.42;127897;1090;64144;-83
2021/06/27 15:47:17;;;;;;;3.87;2.97;;;;;;;26.80;56.11;100649.72;127900;1088;64147;-86
2021/06/27 15:50:24;;;;;;;4.13;3.10;;;;;;;26.79;56.30;100655.29;127935;1088;63760;-85
2021/06/27 15:53:14;;;;;;;4.70;3.20;;;;;;;26.78;56.12;100646.33;127930;1088;64144;-85
2021/06/27 15:56:02;;;;;;;3.93;3.10;;;;;;;26.78;56.02;100638.20;127915;1090;65054;-84
2021/06/27 15:59:01;;;;;;;4.10;3.03;;;;;;;26.79;56.15;100637.20;127905;1089;61780;-83
2021/06/27 16:01:44;;;;;;;4.57;2.90;;;;;;;26.82;56.36;100631.48;127939;1090;64243;-85
2021/06/27 16:04:51;;;;;;;4.33;3.00;;;;;;;26.87;56.44;100634.59;127812;1090;64108;-83
2021/06/27 16:07:52;;;;;;;4.67;3.10;;;;;;;26.89;56.04;100639.84;127913;1090;64189;-83
2021/06/27 16:10:18;;;;;;;4.33;3.33;;;;;;;26.91;56.11;100644.11;127870;1088;64144;-82
2021/06/27 16:12:45;;;;;;;5.13;3.33;;;;;;;26.92;56.11;100642.23;127749;1090;64223;-83
2021/06/27 16:15:24;;;;;;;4.77;2.70;;;;;;;26.91;55.95;100638.69;127877;1090;64143;-84
2021/06/27 16:18:00;;;;;;;3.80;3.13;;;;;;;26.91;55.88;100644.11;127750;1090;64144;-84
2021/06/27 16:21:00;;;;;;;4.13;3.00;;;;;;;26.89;55.78;100642.55;127753;1090;64134;-84
2021/06/27 16:23:55;;;;;;;4.67;2.90;;;;;;;26.87;56.07;100645.42;127543;1090;64355;-84
2021/06/27 16:26:28;;;;;;;4.60;3.00;;;;;;;26.85;55.80;100641.99;127577;1090;64115;-84
2021/06/27 16:29:16;;;;;;;4.50;3.20;;;;;;;26.82;56.04;100652.27;127540;1090;64307;-83
2021/06/27 16:32:21;;;;;;;4.93;3.10;;;;;;;26.82;55.77;100663.09;127587;1090;64137;-84
2021/06/27 16:35:11;;;;;;;5.27;3.00;;;;;;;26.79;55.94;100669.70;127295;1093;64198;-84
2021/06/27 16:38:06;;;;;;;3.90;2.93;;;;;;;26.77;55.90;100677.11;127179;1093;64208;-84
2021/06/27 16:40:41;;;;;;;4.37;3.10;;;;;;;26.75;55.77;100676.39;127192;1093;64482;-83
2021/06/27 16:43:54;;;;;;;4.00;3.00;;;;;;;26.75;56.21;100682.68;127247;1093;64115;-84
2021/06/27 16:46:48;;;;;;;3.77;2.90;;;;;;;26.76;56.22;100689.81;127180;1095;62440;-84
2021/06/27 16:49:24;;;;;;;4.60;3.10;;;;;;;26.80;56.31;100705.75;128250;1095;61931;-82
2021/06/27 16:51:50;;;;;;;4.97;2.97;;;;;;;26.80;56.13;100709.30;128174;1096;61856;-82
2021/06/27 16:54:19;;;;;;;4.03;3.03;;;;;;;26.84;56.23;100713.41;127180;1093;64373;-82